sensor_id;sensor_type;location;lat;lon;timestamp;P1;durP1;ratioP1;P2;durP2;ratioP2
58446;SDS011;44240;51.840;7.258;2023-02-28T00:00:46;8.02;;;5.50;;
58446;SDS011;44240;51.840;7.258;2023-02-28T00:03:11;8.85;;;5.63;;
58446;SDS011;44240;51.840;7.258;2023-02-28T00:05:37;9.65;;;6.32;;
58446;SDS011;44240;51.840;7.258;2023-02-28T00:08:03;8.23;;;5.72;;
58446;SDS011;44240;51.840;7.258;2023-02-28T00:10:29;6.72;;;5.20;;
58446;SDS011;44240;51.840;7.258;2023-02-28T00:12:56;7.13;;;5.03;;
58446;SDS011;44240;51.840;7.258;2023-02-28T00:15:25;6.25;;;5.35;;
58446;SDS011;44240;51.840;7.258;2023-02-28T00:17:51;7.82;;;5.80;;
58446;SDS011;44240;51.840;7.258;2023-02-28T00:20:17;9.88;;;6.30;;
58446;SDS011;44240;51.840;7.258;2023-02-28T00:22:47;10.65;;;5.55;;
58446;SDS011;44240;51.840;7.258;2023-02-28T00:25:15;8.38;;;5.35;;
58446;SDS011;44240;51.840;7.258;2023-02-28T00:27:42;9.38;;;5.90;;
58446;SDS011;44240;51.840;7.258;2023-02-28T00:30:10;11.35;;;5.57;;
58446;SDS011;44240;51.840;7.258;2023-02-28T00:32:38;11.25;;;5.78;;
58446;SDS011;44240;51.840;7.258;2023-02-28T00:35:04;10.25;;;6.18;;
58446;SDS011;44240;51.840;7.258;2023-02-28T00:37:30;8.48;;;5.97;;
58446;SDS011;44240;51.840;7.258;2023-02-28T00:39:56;8.57;;;5.70;;
58446;SDS011;44240;51.840;7.258;2023-02-28T00:42:21;8.15;;;5.45;;
58446;SDS011;44240;51.840;7.258;2023-02-28T00:44:47;10.18;;;5.93;;
58446;SDS011;44240;51.840;7.258;2023-02-28T00:47:12;8.35;;;5.38;;
58446;SDS011;44240;51.840;7.258;2023-02-28T00:49:38;7.60;;;5.70;;
58446;SDS011;44240;51.840;7.258;2023-02-28T00:52:03;7.63;;;5.57;;
58446;SDS011;44240;51.840;7.258;2023-02-28T00:54:29;9.63;;;5.55;;
58446;SDS011;44240;51.840;7.258;2023-02-28T00:56:54;10.50;;;5.72;;
58446;SDS011;44240;51.840;7.258;2023-02-28T00:59:20;8.27;;;5.95;;
58446;SDS011;44240;51.840;7.258;2023-02-28T01:01:46;9.20;;;5.75;;
58446;SDS011;44240;51.840;7.258;2023-02-28T01:04:12;8.48;;;5.70;;
58446;SDS011;44240;51.840;7.258;2023-02-28T01:06:38;8.65;;;5.45;;
58446;SDS011;44240;51.840;7.258;2023-02-28T01:09:04;8.88;;;5.38;;
58446;SDS011;44240;51.840;7.258;2023-02-28T01:11:31;11.27;;;5.20;;
58446;SDS011;44240;51.840;7.258;2023-02-28T01:13:57;9.10;;;5.25;;
58446;SDS011;44240;51.840;7.258;2023-02-28T01:16:24;5.38;;;4.88;;
58446;SDS011;44240;51.840;7.258;2023-02-28T01:18:50;8.02;;;5.35;;
58446;SDS011;44240;51.840;7.258;2023-02-28T01:21:16;8.68;;;5.68;;
58446;SDS011;44240;51.840;7.258;2023-02-28T01:23:43;5.93;;;5.10;;
58446;SDS011;44240;51.840;7.258;2023-02-28T01:26:10;7.93;;;5.25;;
58446;SDS011;44240;51.840;7.258;2023-02-28T01:28:37;7.45;;;5.35;;
58446;SDS011;44240;51.840;7.258;2023-02-28T01:31:03;7.90;;;5.68;;
58446;SDS011;44240;51.840;7.258;2023-02-28T01:33:30;7.45;;;5.40;;
58446;SDS011;44240;51.840;7.258;2023-02-28T01:36:03;9.45;;;5.85;;
58446;SDS011;44240;51.840;7.258;2023-02-28T01:40:56;7.65;;;5.63;;
58446;SDS011;44240;51.840;7.258;2023-02-28T01:43:23;8.77;;;5.68;;
58446;SDS011;44240;51.840;7.258;2023-02-28T01:45:52;9.00;;;5.75;;
58446;SDS011;44240;51.840;7.258;2023-02-28T01:48:18;9.90;;;4.85;;
58446;SDS011;44240;51.840;7.258;2023-02-28T01:50:46;9.65;;;5.20;;
58446;SDS011;44240;51.840;7.258;2023-02-28T01:53:14;7.30;;;4.90;;
58446;SDS011;44240;51.840;7.258;2023-02-28T01:55:44;6.68;;;5.50;;
58446;SDS011;44240;51.840;7.258;2023-02-28T01:58:14;7.38;;;5.05;;
58446;SDS011;44240;51.840;7.258;2023-02-28T02:00:40;6.75;;;4.88;;
58446;SDS011;44240;51.840;7.258;2023-02-28T02:03:11;7.72;;;5.18;;
58446;SDS011;44240;51.840;7.258;2023-02-28T02:05:40;7.10;;;5.07;;
58446;SDS011;44240;51.840;7.258;2023-02-28T02:08:12;6.13;;;5.15;;
58446;SDS011;44240;51.840;7.258;2023-02-28T02:15:49;6.18;;;4.70;;
58446;SDS011;44240;51.840;7.258;2023-02-28T02:18:40;6.57;;;5.72;;
58446;SDS011;44240;51.840;7.258;2023-02-28T02:29:55;7.53;;;5.10;;
58446;SDS011;44240;51.840;7.258;2023-02-28T02:38:41;8.77;;;5.03;;
58446;SDS011;44240;51.840;7.258;2023-02-28T02:41:34;5.20;;;4.70;;
58446;SDS011;44240;51.840;7.258;2023-02-28T02:44:20;6.50;;;5.88;;
58446;SDS011;44240;51.840;7.258;2023-02-28T02:46:52;6.63;;;5.35;;
58446;SDS011;44240;51.840;7.258;2023-02-28T02:49:27;7.80;;;5.28;;
58446;SDS011;44240;51.840;7.258;2023-02-28T02:51:56;6.93;;;5.32;;
58446;SDS011;44240;51.840;7.258;2023-02-28T02:54:33;6.43;;;4.30;;
58446;SDS011;44240;51.840;7.258;2023-02-28T02:57:10;10.77;;;5.25;;
58446;SDS011;44240;51.840;7.258;2023-02-28T02:59:41;8.73;;;5.15;;
58446;SDS011;44240;51.840;7.258;2023-02-28T03:02:09;6.75;;;5.05;;
58446;SDS011;44240;51.840;7.258;2023-02-28T03:04:42;9.40;;;5.20;;
58446;SDS011;44240;51.840;7.258;2023-02-28T03:07:11;5.95;;;4.95;;
58446;SDS011;44240;51.840;7.258;2023-02-28T03:09:36;5.95;;;4.68;;
58446;SDS011;44240;51.840;7.258;2023-02-28T03:12:02;5.55;;;5.05;;
58446;SDS011;44240;51.840;7.258;2023-02-28T03:19:51;7.15;;;5.38;;
58446;SDS011;44240;51.840;7.258;2023-02-28T03:25:55;7.63;;;5.40;;
58446;SDS011;44240;51.840;7.258;2023-02-28T03:31:13;6.78;;;5.40;;
58446;SDS011;44240;51.840;7.258;2023-02-28T03:36:30;7.05;;;5.18;;
58446;SDS011;44240;51.840;7.258;2023-02-28T03:39:08;6.90;;;5.40;;
58446;SDS011;44240;51.840;7.258;2023-02-28T03:41:47;11.00;;;5.65;;
58446;SDS011;44240;51.840;7.258;2023-02-28T03:44:26;9.43;;;5.03;;
58446;SDS011;44240;51.840;7.258;2023-02-28T03:47:00;5.85;;;5.20;;
58446;SDS011;44240;51.840;7.258;2023-02-28T03:49:37;7.40;;;5.85;;
58446;SDS011;44240;51.840;7.258;2023-02-28T03:52:09;14.50;;;6.50;;
58446;SDS011;44240;51.840;7.258;2023-02-28T03:54:37;6.78;;;5.18;;
58446;SDS011;44240;51.840;7.258;2023-02-28T03:57:12;8.32;;;5.88;;
58446;SDS011;44240;51.840;7.258;2023-02-28T03:59:47;7.25;;;5.00;;
58446;SDS011;44240;51.840;7.258;2023-02-28T04:02:20;10.57;;;5.93;;
58446;SDS011;44240;51.840;7.258;2023-02-28T04:04:45;8.32;;;5.25;;
58446;SDS011;44240;51.840;7.258;2023-02-28T04:07:13;7.25;;;5.68;;
58446;SDS011;44240;51.840;7.258;2023-02-28T04:09:40;13.18;;;6.35;;
58446;SDS011;44240;51.840;7.258;2023-02-28T04:12:06;5.15;;;4.65;;
58446;SDS011;44240;51.840;7.258;2023-02-28T04:14:32;9.90;;;6.07;;
58446;SDS011;44240;51.840;7.258;2023-02-28T04:16:57;8.23;;;5.40;;
58446;SDS011;44240;51.840;7.258;2023-02-28T04:19:23;8.82;;;6.18;;
58446;SDS011;44240;51.840;7.258;2023-02-28T04:21:49;9.50;;;6.68;;
58446;SDS011;44240;51.840;7.258;2023-02-28T04:24:18;8.93;;;6.25;;
58446;SDS011;44240;51.840;7.258;2023-02-28T04:26:49;8.43;;;6.30;;
58446;SDS011;44240;51.840;7.258;2023-02-28T04:29:20;8.82;;;6.70;;
58446;SDS011;44240;51.840;7.258;2023-02-28T04:31:48;11.98;;;7.32;;
58446;SDS011;44240;51.840;7.258;2023-02-28T04:34:14;9.85;;;7.00;;
58446;SDS011;44240;51.840;7.258;2023-02-28T04:36:40;8.90;;;7.03;;
58446;SDS011;44240;51.840;7.258;2023-02-28T04:39:06;10.00;;;6.38;;
58446;SDS011;44240;51.840;7.258;2023-02-28T04:41:31;9.88;;;6.68;;
58446;SDS011;44240;51.840;7.258;2023-02-28T04:43:57;8.18;;;6.47;;
58446;SDS011;44240;51.840;7.258;2023-02-28T04:46:22;11.35;;;6.43;;
58446;SDS011;44240;51.840;7.258;2023-02-28T04:48:48;14.70;;;8.13;;
58446;SDS011;44240;51.840;7.258;2023-02-28T04:51:15;11.02;;;7.57;;
58446;SDS011;44240;51.840;7.258;2023-02-28T04:53:42;10.57;;;8.05;;
58446;SDS011;44240;51.840;7.258;2023-02-28T04:56:10;10.95;;;7.28;;
58446;SDS011;44240;51.840;7.258;2023-02-28T04:58:37;9.48;;;6.93;;
58446;SDS011;44240;51.840;7.258;2023-02-28T05:01:06;9.60;;;6.53;;
58446;SDS011;44240;51.840;7.258;2023-02-28T05:03:40;7.53;;;6.05;;
58446;SDS011;44240;51.840;7.258;2023-02-28T05:06:07;9.43;;;7.07;;
58446;SDS011;44240;51.840;7.258;2023-02-28T05:08:33;9.23;;;6.28;;
58446;SDS011;44240;51.840;7.258;2023-02-28T05:10:59;10.10;;;6.13;;
58446;SDS011;44240;51.840;7.258;2023-02-28T05:13:25;12.57;;;6.10;;
58446;SDS011;44240;51.840;7.258;2023-02-28T05:15:52;7.40;;;5.65;;
58446;SDS011;44240;51.840;7.258;2023-02-28T05:18:17;13.55;;;6.00;;
58446;SDS011;44240;51.840;7.258;2023-02-28T05:20:43;8.10;;;5.72;;
58446;SDS011;44240;51.840;7.258;2023-02-28T05:23:10;6.15;;;5.30;;
58446;SDS011;44240;51.840;7.258;2023-02-28T05:25:37;6.82;;;5.10;;
58446;SDS011;44240;51.840;7.258;2023-02-28T05:28:04;10.95;;;6.00;;
58446;SDS011;44240;51.840;7.258;2023-02-28T05:30:30;8.38;;;5.68;;
58446;SDS011;44240;51.840;7.258;2023-02-28T05:32:56;9.23;;;6.28;;
58446;SDS011;44240;51.840;7.258;2023-02-28T05:35:23;8.25;;;5.90;;
58446;SDS011;44240;51.840;7.258;2023-02-28T05:37:49;7.40;;;5.43;;
58446;SDS011;44240;51.840;7.258;2023-02-28T05:40:14;9.00;;;5.85;;
58446;SDS011;44240;51.840;7.258;2023-02-28T05:42:40;8.85;;;5.90;;
58446;SDS011;44240;51.840;7.258;2023-02-28T05:45:06;7.68;;;5.90;;
58446;SDS011;44240;51.840;7.258;2023-02-28T05:47:33;7.22;;;6.07;;
58446;SDS011;44240;51.840;7.258;2023-02-28T05:49:58;11.02;;;5.88;;
58446;SDS011;44240;51.840;7.258;2023-02-28T05:52:24;9.82;;;6.63;;
58446;SDS011;44240;51.840;7.258;2023-02-28T05:54:50;8.25;;;6.50;;
58446;SDS011;44240;51.840;7.258;2023-02-28T05:57:16;10.65;;;6.95;;
58446;SDS011;44240;51.840;7.258;2023-02-28T05:59:41;9.95;;;5.68;;
58446;SDS011;44240;51.840;7.258;2023-02-28T06:02:14;9.70;;;5.47;;
58446;SDS011;44240;51.840;7.258;2023-02-28T06:04:40;5.95;;;5.22;;
58446;SDS011;44240;51.840;7.258;2023-02-28T06:07:07;9.50;;;5.95;;
58446;SDS011;44240;51.840;7.258;2023-02-28T06:09:33;7.03;;;5.70;;
58446;SDS011;44240;51.840;7.258;2023-02-28T06:11:59;7.55;;;5.72;;
58446;SDS011;44240;51.840;7.258;2023-02-28T06:14:25;11.60;;;6.22;;
58446;SDS011;44240;51.840;7.258;2023-02-28T06:16:51;8.85;;;6.20;;
58446;SDS011;44240;51.840;7.258;2023-02-28T06:19:17;10.27;;;5.13;;
58446;SDS011;44240;51.840;7.258;2023-02-28T06:21:42;7.60;;;5.22;;
58446;SDS011;44240;51.840;7.258;2023-02-28T06:24:08;6.90;;;5.28;;
58446;SDS011;44240;51.840;7.258;2023-02-28T06:26:34;8.00;;;5.60;;
58446;SDS011;44240;51.840;7.258;2023-02-28T06:29:00;10.77;;;5.82;;
58446;SDS011;44240;51.840;7.258;2023-02-28T06:31:27;9.95;;;5.47;;
58446;SDS011;44240;51.840;7.258;2023-02-28T06:33:54;8.75;;;5.20;;
58446;SDS011;44240;51.840;7.258;2023-02-28T06:36:20;6.95;;;5.70;;
58446;SDS011;44240;51.840;7.258;2023-02-28T06:38:46;8.63;;;5.45;;
58446;SDS011;44240;51.840;7.258;2023-02-28T06:41:16;10.02;;;6.07;;
58446;SDS011;44240;51.840;7.258;2023-02-28T06:43:42;7.13;;;5.85;;
58446;SDS011;44240;51.840;7.258;2023-02-28T06:46:08;7.57;;;6.53;;
58446;SDS011;44240;51.840;7.258;2023-02-28T06:48:37;8.55;;;5.97;;
58446;SDS011;44240;51.840;7.258;2023-02-28T06:51:06;7.88;;;6.22;;
58446;SDS011;44240;51.840;7.258;2023-02-28T06:53:34;9.02;;;6.07;;
58446;SDS011;44240;51.840;7.258;2023-02-28T06:56:03;7.75;;;6.30;;
58446;SDS011;44240;51.840;7.258;2023-02-28T06:58:32;8.13;;;6.90;;
58446;SDS011;44240;51.840;7.258;2023-02-28T07:00:58;8.27;;;6.80;;
58446;SDS011;44240;51.840;7.258;2023-02-28T07:03:24;11.70;;;7.97;;
58446;SDS011;44240;51.840;7.258;2023-02-28T09:03:42;5.45;;;2.88;;
58446;SDS011;44240;51.840;7.258;2023-02-28T09:06:10;2.85;;;2.50;;
58446;SDS011;44240;51.840;7.258;2023-02-28T09:08:36;3.95;;;2.63;;
58446;SDS011;44240;51.840;7.258;2023-02-28T09:11:02;3.08;;;2.88;;
58446;SDS011;44240;51.840;7.258;2023-02-28T09:13:28;5.63;;;2.95;;
58446;SDS011;44240;51.840;7.258;2023-02-28T09:15:56;5.68;;;3.10;;
58446;SDS011;44240;51.840;7.258;2023-02-28T09:18:23;6.10;;;2.80;;
58446;SDS011;44240;51.840;7.258;2023-02-28T09:20:49;5.00;;;2.80;;
58446;SDS011;44240;51.840;7.258;2023-02-28T09:23:15;9.45;;;2.92;;
58446;SDS011;44240;51.840;7.258;2023-02-28T09:25:48;5.38;;;2.53;;
58446;SDS011;44240;51.840;7.258;2023-02-28T09:28:15;2.85;;;2.63;;
58446;SDS011;44240;51.840;7.258;2023-02-28T09:30:42;3.42;;;2.72;;
58446;SDS011;44240;51.840;7.258;2023-02-28T09:33:09;3.55;;;2.72;;
58446;SDS011;44240;51.840;7.258;2023-02-28T09:35:35;5.72;;;3.30;;
58446;SDS011;44240;51.840;7.258;2023-02-28T09:38:02;3.80;;;2.97;;
58446;SDS011;44240;51.840;7.258;2023-02-28T09:40:28;6.78;;;4.60;;
58446;SDS011;44240;51.840;7.258;2023-02-28T09:42:54;5.68;;;3.50;;
58446;SDS011;44240;51.840;7.258;2023-02-28T09:45:28;5.53;;;3.50;;
58446;SDS011;44240;51.840;7.258;2023-02-28T09:47:59;5.78;;;3.35;;
58446;SDS011;44240;51.840;7.258;2023-02-28T09:50:30;10.77;;;3.75;;
58446;SDS011;44240;51.840;7.258;2023-02-28T09:53:01;5.30;;;2.72;;
58446;SDS011;44240;51.840;7.258;2023-02-28T09:55:37;5.85;;;2.65;;
58446;SDS011;44240;51.840;7.258;2023-02-28T09:58:08;5.22;;;3.10;;
58446;SDS011;44240;51.840;7.258;2023-02-28T10:00:43;5.65;;;3.53;;
58446;SDS011;44240;51.840;7.258;2023-02-28T10:03:15;8.38;;;4.20;;
58446;SDS011;44240;51.840;7.258;2023-02-28T10:06:03;9.95;;;5.40;;
58446;SDS011;44240;51.840;7.258;2023-02-28T10:08:38;7.32;;;4.10;;
58446;SDS011;44240;51.840;7.258;2023-02-28T10:11:10;6.10;;;4.30;;
58446;SDS011;44240;51.840;7.258;2023-02-28T10:14:22;4.97;;;3.00;;
58446;SDS011;44240;51.840;7.258;2023-02-28T10:16:35;4.05;;;2.67;;
58446;SDS011;44240;51.840;7.258;2023-02-28T10:21:41;3.22;;;2.22;;
58446;SDS011;44240;51.840;7.258;2023-02-28T10:24:19;3.95;;;2.20;;
58446;SDS011;44240;51.840;7.258;2023-02-28T10:26:45;3.22;;;1.90;;
58446;SDS011;44240;51.840;7.258;2023-02-28T10:29:13;1.80;;;1.58;;
58446;SDS011;44240;51.840;7.258;2023-02-28T10:31:39;1.70;;;1.60;;
58446;SDS011;44240;51.840;7.258;2023-02-28T10:34:05;3.92;;;1.92;;
58446;SDS011;44240;51.840;7.258;2023-02-28T10:36:31;3.10;;;1.80;;
58446;SDS011;44240;51.840;7.258;2023-02-28T10:38:57;3.85;;;2.28;;
58446;SDS011;44240;51.840;7.258;2023-02-28T10:41:31;2.67;;;2.20;;
58446;SDS011;44240;51.840;7.258;2023-02-28T10:44:21;2.20;;;1.80;;
58446;SDS011;44240;51.840;7.258;2023-02-28T10:46:48;3.88;;;1.90;;
58446;SDS011;44240;51.840;7.258;2023-02-28T10:49:25;3.83;;;2.13;;
58446;SDS011;44240;51.840;7.258;2023-02-28T10:51:57;2.55;;;2.15;;
58446;SDS011;44240;51.840;7.258;2023-02-28T10:54:31;5.20;;;2.13;;
58446;SDS011;44240;51.840;7.258;2023-02-28T10:57:14;5.22;;;2.20;;
58446;SDS011;44240;51.840;7.258;2023-02-28T10:59:40;3.95;;;2.25;;
58446;SDS011;44240;51.840;7.258;2023-02-28T11:04:58;6.38;;;2.72;;
58446;SDS011;44240;51.840;7.258;2023-02-28T11:07:23;2.78;;;2.28;;
58446;SDS011;44240;51.840;7.258;2023-02-28T11:09:51;5.32;;;2.83;;
58446;SDS011;44240;51.840;7.258;2023-02-28T11:12:23;2.63;;;2.30;;
58446;SDS011;44240;51.840;7.258;2023-02-28T11:14:52;5.07;;;2.90;;
58446;SDS011;44240;51.840;7.258;2023-02-28T11:19:53;3.00;;;2.30;;
58446;SDS011;44240;51.840;7.258;2023-02-28T11:22:23;3.25;;;2.72;;
58446;SDS011;44240;51.840;7.258;2023-02-28T11:24:53;7.65;;;3.38;;
58446;SDS011;44240;51.840;7.258;2023-02-28T11:29:58;4.57;;;2.35;;
58446;SDS011;44240;51.840;7.258;2023-02-28T11:32:26;4.00;;;2.78;;
58446;SDS011;44240;51.840;7.258;2023-02-28T11:37:55;2.63;;;2.42;;
58446;SDS011;44240;51.840;7.258;2023-02-28T11:40:24;4.00;;;3.22;;
58446;SDS011;44240;51.840;7.258;2023-02-28T11:45:37;3.88;;;2.88;;
58446;SDS011;44240;51.840;7.258;2023-02-28T11:48:21;3.08;;;2.83;;
58446;SDS011;44240;51.840;7.258;2023-02-28T11:51:01;3.13;;;2.83;;
58446;SDS011;44240;51.840;7.258;2023-02-28T11:53:59;3.15;;;2.95;;
58446;SDS011;44240;51.840;7.258;2023-02-28T11:56:47;2.70;;;2.53;;
58446;SDS011;44240;51.840;7.258;2023-02-28T11:59:23;3.45;;;3.15;;
58446;SDS011;44240;51.840;7.258;2023-02-28T12:05:10;2.60;;;2.40;;
58446;SDS011;44240;51.840;7.258;2023-02-28T12:10:42;4.78;;;3.13;;
58446;SDS011;44240;51.840;7.258;2023-02-28T12:13:21;3.65;;;2.85;;
58446;SDS011;44240;51.840;7.258;2023-02-28T12:26:49;2.22;;;2.03;;
58446;SDS011;44240;51.840;7.258;2023-02-28T12:29:18;2.58;;;2.38;;
58446;SDS011;44240;51.840;7.258;2023-02-28T12:31:54;1.88;;;1.77;;
58446;SDS011;44240;51.840;7.258;2023-02-28T12:34:32;2.28;;;2.08;;
58446;SDS011;44240;51.840;7.258;2023-02-28T12:37:04;5.68;;;2.10;;
58446;SDS011;44240;51.840;7.258;2023-02-28T12:39:39;2.47;;;2.20;;
58446;SDS011;44240;51.840;7.258;2023-02-28T12:42:10;3.20;;;2.47;;
58446;SDS011;44240;51.840;7.258;2023-02-28T12:44:49;4.18;;;2.47;;
58446;SDS011;44240;51.840;7.258;2023-02-28T12:47:19;4.60;;;2.53;;
58446;SDS011;44240;51.840;7.258;2023-02-28T12:49:56;3.72;;;2.90;;
58446;SDS011;44240;51.840;7.258;2023-02-28T12:52:31;2.30;;;2.08;;
58446;SDS011;44240;51.840;7.258;2023-02-28T12:55:03;4.22;;;2.50;;
58446;SDS011;44240;51.840;7.258;2023-02-28T13:00:03;2.88;;;2.63;;
58446;SDS011;44240;51.840;7.258;2023-02-28T13:11:01;3.15;;;2.88;;
58446;SDS011;44240;51.840;7.258;2023-02-28T13:13:28;4.68;;;2.67;;
58446;SDS011;44240;51.840;7.258;2023-02-28T13:21:04;7.63;;;3.17;;
58446;SDS011;44240;51.840;7.258;2023-02-28T13:23:39;3.15;;;2.90;;
58446;SDS011;44240;51.840;7.258;2023-02-28T13:26:08;3.17;;;2.70;;
58446;SDS011;44240;51.840;7.258;2023-02-28T13:31:25;3.33;;;3.03;;
58446;SDS011;44240;51.840;7.258;2023-02-28T13:36:27;3.90;;;3.10;;
58446;SDS011;44240;51.840;7.258;2023-02-28T13:38:58;3.88;;;3.45;;
58446;SDS011;44240;51.840;7.258;2023-02-28T13:57:42;3.90;;;3.60;;
58446;SDS011;44240;51.840;7.258;2023-02-28T14:00:18;5.80;;;2.97;;
58446;SDS011;44240;51.840;7.258;2023-02-28T14:05:41;4.65;;;3.88;;
58446;SDS011;44240;51.840;7.258;2023-02-28T14:08:12;3.60;;;3.28;;
58446;SDS011;44240;51.840;7.258;2023-02-28T14:18:31;3.33;;;3.00;;
58446;SDS011;44240;51.840;7.258;2023-02-28T14:21:08;5.93;;;3.42;;
58446;SDS011;44240;51.840;7.258;2023-02-28T14:32:59;4.88;;;2.85;;
58446;SDS011;44240;51.840;7.258;2023-02-28T14:36:16;2.80;;;2.60;;
58446;SDS011;44240;51.840;7.258;2023-02-28T14:38:46;4.05;;;3.00;;
58446;SDS011;44240;51.840;7.258;2023-02-28T14:41:31;3.70;;;2.90;;
58446;SDS011;44240;51.840;7.258;2023-02-28T14:44:03;6.75;;;2.85;;
58446;SDS011;44240;51.840;7.258;2023-02-28T14:46:40;8.60;;;3.05;;
58446;SDS011;44240;51.840;7.258;2023-02-28T14:49:29;13.45;;;3.67;;
58446;SDS011;44240;51.840;7.258;2023-02-28T14:54:55;35.30;;;6.47;;
58446;SDS011;44240;51.840;7.258;2023-02-28T14:57:24;3.55;;;2.70;;
58446;SDS011;44240;51.840;7.258;2023-02-28T15:00:03;2.90;;;2.45;;
58446;SDS011;44240;51.840;7.258;2023-02-28T15:02:30;3.25;;;2.13;;
58446;SDS011;44240;51.840;7.258;2023-02-28T15:07:45;3.90;;;2.95;;
58446;SDS011;44240;51.840;7.258;2023-02-28T15:10:24;2.97;;;2.60;;
58446;SDS011;44240;51.840;7.258;2023-02-28T15:12:53;3.67;;;2.65;;
58446;SDS011;44240;51.840;7.258;2023-02-28T15:15:21;2.80;;;2.50;;
58446;SDS011;44240;51.840;7.258;2023-02-28T15:17:50;3.22;;;2.65;;
58446;SDS011;44240;51.840;7.258;2023-02-28T15:20:18;4.97;;;2.65;;
58446;SDS011;44240;51.840;7.258;2023-02-28T15:22:44;3.13;;;2.65;;
58446;SDS011;44240;51.840;7.258;2023-02-28T15:25:13;7.57;;;3.58;;
58446;SDS011;44240;51.840;7.258;2023-02-28T15:27:47;10.50;;;3.28;;
58446;SDS011;44240;51.840;7.258;2023-02-28T15:30:19;3.30;;;2.72;;
58446;SDS011;44240;51.840;7.258;2023-02-28T15:33:18;8.98;;;3.15;;
58446;SDS011;44240;51.840;7.258;2023-02-28T15:36:06;2.85;;;2.55;;
58446;SDS011;44240;51.840;7.258;2023-02-28T15:38:40;7.53;;;3.00;;
58446;SDS011;44240;51.840;7.258;2023-02-28T15:41:20;9.13;;;3.08;;
58446;SDS011;44240;51.840;7.258;2023-02-28T15:46:44;4.10;;;2.67;;
58446;SDS011;44240;51.840;7.258;2023-02-28T15:49:20;3.33;;;2.72;;
58446;SDS011;44240;51.840;7.258;2023-02-28T15:51:48;3.28;;;2.97;;
58446;SDS011;44240;51.840;7.258;2023-02-28T15:54:27;5.15;;;3.63;;
58446;SDS011;44240;51.840;7.258;2023-02-28T15:57:03;3.83;;;3.10;;
58446;SDS011;44240;51.840;7.258;2023-02-28T15:59:33;6.05;;;3.50;;
58446;SDS011;44240;51.840;7.258;2023-02-28T16:04:37;9.13;;;3.88;;
58446;SDS011;44240;51.840;7.258;2023-02-28T16:07:20;4.13;;;3.72;;
58446;SDS011;44240;51.840;7.258;2023-02-28T16:09:45;3.63;;;3.33;;
58446;SDS011;44240;51.840;7.258;2023-02-28T16:12:12;3.53;;;3.22;;
58446;SDS011;44240;51.840;7.258;2023-02-28T16:14:38;6.15;;;4.00;;
58446;SDS011;44240;51.840;7.258;2023-02-28T16:17:07;3.53;;;3.22;;
58446;SDS011;44240;51.840;7.258;2023-02-28T16:19:41;4.28;;;3.85;;
58446;SDS011;44240;51.840;7.258;2023-02-28T16:22:07;6.05;;;3.90;;
58446;SDS011;44240;51.840;7.258;2023-02-28T16:24:34;5.80;;;3.78;;
58446;SDS011;44240;51.840;7.258;2023-02-28T16:26:59;4.03;;;3.65;;
58446;SDS011;44240;51.840;7.258;2023-02-28T16:29:35;3.72;;;3.40;;
58446;SDS011;44240;51.840;7.258;2023-02-28T16:32:01;7.30;;;4.13;;
58446;SDS011;44240;51.840;7.258;2023-02-28T16:34:30;12.60;;;8.48;;
58446;SDS011;44240;51.840;7.258;2023-02-28T16:36:55;14.27;;;8.73;;
58446;SDS011;44240;51.840;7.258;2023-02-28T16:39:21;12.13;;;7.85;;
58446;SDS011;44240;51.840;7.258;2023-02-28T16:41:47;24.23;;;13.70;;
58446;SDS011;44240;51.840;7.258;2023-02-28T16:44:19;10.40;;;6.82;;
58446;SDS011;44240;51.840;7.258;2023-02-28T16:46:46;10.63;;;7.32;;
58446;SDS011;44240;51.840;7.258;2023-02-28T16:49:12;8.65;;;6.45;;
58446;SDS011;44240;51.840;7.258;2023-02-28T16:51:38;5.88;;;4.55;;
58446;SDS011;44240;51.840;7.258;2023-02-28T16:54:04;4.93;;;4.15;;
58446;SDS011;44240;51.840;7.258;2023-02-28T16:56:29;5.80;;;4.80;;
58446;SDS011;44240;51.840;7.258;2023-02-28T16:58:55;6.95;;;5.03;;
58446;SDS011;44240;51.840;7.258;2023-02-28T17:01:25;4.22;;;3.72;;
58446;SDS011;44240;51.840;7.258;2023-02-28T17:03:52;5.53;;;4.60;;
58446;SDS011;44240;51.840;7.258;2023-02-28T17:06:22;9.38;;;4.05;;
58446;SDS011;44240;51.840;7.258;2023-02-28T17:08:55;4.25;;;3.80;;
58446;SDS011;44240;51.840;7.258;2023-02-28T17:11:22;5.82;;;4.28;;
58446;SDS011;44240;51.840;7.258;2023-02-28T17:13:49;5.32;;;4.25;;
58446;SDS011;44240;51.840;7.258;2023-02-28T17:16:20;6.30;;;4.57;;
58446;SDS011;44240;51.840;7.258;2023-02-28T17:18:47;5.65;;;4.28;;
58446;SDS011;44240;51.840;7.258;2023-02-28T17:21:14;5.72;;;4.20;;
58446;SDS011;44240;51.840;7.258;2023-02-28T17:23:40;7.18;;;4.13;;
58446;SDS011;44240;51.840;7.258;2023-02-28T17:26:06;6.47;;;4.20;;
58446;SDS011;44240;51.840;7.258;2023-02-28T17:28:34;5.95;;;3.95;;
58446;SDS011;44240;51.840;7.258;2023-02-28T17:31:00;6.25;;;4.47;;
58446;SDS011;44240;51.840;7.258;2023-02-28T17:33:25;6.43;;;4.88;;
58446;SDS011;44240;51.840;7.258;2023-02-28T17:35:51;7.70;;;5.75;;
58446;SDS011;44240;51.840;7.258;2023-02-28T17:38:17;5.93;;;5.10;;
58446;SDS011;44240;51.840;7.258;2023-02-28T17:40:44;9.50;;;5.00;;
58446;SDS011;44240;51.840;7.258;2023-02-28T17:43:10;5.93;;;4.82;;
58446;SDS011;44240;51.840;7.258;2023-02-28T17:45:36;5.70;;;4.97;;
58446;SDS011;44240;51.840;7.258;2023-02-28T17:48:02;9.82;;;5.90;;
58446;SDS011;44240;51.840;7.258;2023-02-28T17:50:27;8.57;;;6.30;;
58446;SDS011;44240;51.840;7.258;2023-02-28T17:52:53;10.85;;;6.68;;
58446;SDS011;44240;51.840;7.258;2023-02-28T17:55:18;10.25;;;6.85;;
58446;SDS011;44240;51.840;7.258;2023-02-28T17:57:44;9.15;;;5.82;;
58446;SDS011;44240;51.840;7.258;2023-02-28T18:00:14;8.40;;;5.53;;
58446;SDS011;44240;51.840;7.258;2023-02-28T18:02:41;6.88;;;5.72;;
58446;SDS011;44240;51.840;7.258;2023-02-28T18:05:07;7.10;;;6.38;;
58446;SDS011;44240;51.840;7.258;2023-02-28T18:07:33;8.27;;;6.95;;
58446;SDS011;44240;51.840;7.258;2023-02-28T18:10:01;10.93;;;7.10;;
58446;SDS011;44240;51.840;7.258;2023-02-28T18:12:28;9.10;;;6.53;;
58446;SDS011;44240;51.840;7.258;2023-02-28T18:14:53;11.35;;;6.70;;
58446;SDS011;44240;51.840;7.258;2023-02-28T18:17:19;11.55;;;7.05;;
58446;SDS011;44240;51.840;7.258;2023-02-28T18:19:45;7.38;;;6.43;;
58446;SDS011;44240;51.840;7.258;2023-02-28T18:22:10;8.15;;;7.00;;
58446;SDS011;44240;51.840;7.258;2023-02-28T18:24:36;8.80;;;6.60;;
58446;SDS011;44240;51.840;7.258;2023-02-28T18:27:01;10.27;;;6.10;;
58446;SDS011;44240;51.840;7.258;2023-02-28T18:29:27;10.35;;;5.55;;
58446;SDS011;44240;51.840;7.258;2023-02-28T18:31:54;9.02;;;6.22;;
58446;SDS011;44240;51.840;7.258;2023-02-28T18:34:21;7.03;;;5.40;;
58446;SDS011;44240;51.840;7.258;2023-02-28T18:36:47;6.65;;;5.40;;
58446;SDS011;44240;51.840;7.258;2023-02-28T18:39:14;8.98;;;7.15;;
58446;SDS011;44240;51.840;7.258;2023-02-28T18:41:40;8.35;;;6.50;;
58446;SDS011;44240;51.840;7.258;2023-02-28T18:44:06;8.50;;;6.90;;
58446;SDS011;44240;51.840;7.258;2023-02-28T18:46:33;7.80;;;6.05;;
58446;SDS011;44240;51.840;7.258;2023-02-28T18:48:59;8.45;;;5.95;;
58446;SDS011;44240;51.840;7.258;2023-02-28T18:51:25;8.50;;;6.43;;
58446;SDS011;44240;51.840;7.258;2023-02-28T18:53:52;7.68;;;6.68;;
58446;SDS011;44240;51.840;7.258;2023-02-28T18:56:19;9.93;;;7.43;;
58446;SDS011;44240;51.840;7.258;2023-02-28T18:58:47;10.00;;;7.32;;
58446;SDS011;44240;51.840;7.258;2023-02-28T19:01:15;13.80;;;9.10;;
58446;SDS011;44240;51.840;7.258;2023-02-28T19:03:43;16.35;;;10.70;;
58446;SDS011;44240;51.840;7.258;2023-02-28T19:06:09;16.55;;;9.82;;
58446;SDS011;44240;51.840;7.258;2023-02-28T19:08:35;13.73;;;9.18;;
58446;SDS011;44240;51.840;7.258;2023-02-28T19:11:08;20.80;;;11.80;;
58446;SDS011;44240;51.840;7.258;2023-02-28T19:13:34;19.55;;;12.05;;
58446;SDS011;44240;51.840;7.258;2023-02-28T19:16:01;24.95;;;14.00;;